sensor_id;sensor_type;location;lat;lon;timestamp;P1;durP1;ratioP1;P2;durP2;ratioP2
14975;SDS011;7584;60.468;25.126;2023-04-28T00:00:43;2.83;;;1.30;;
14975;SDS011;7584;60.468;25.126;2023-04-28T00:03:08;5.13;;;1.70;;
14975;SDS011;7584;60.468;25.126;2023-04-28T00:05:34;4.23;;;1.50;;
14975;SDS011;7584;60.468;25.126;2023-04-28T00:07:59;5.40;;;1.70;;
14975;SDS011;7584;60.468;25.126;2023-04-28T00:10:27;6.43;;;1.43;;
14975;SDS011;7584;60.468;25.126;2023-04-28T00:12:52;4.43;;;1.50;;
14975;SDS011;7584;60.468;25.126;2023-04-28T00:15:17;5.93;;;1.50;;
14975;SDS011;7584;60.468;25.126;2023-04-28T00:17:43;2.43;;;1.20;;
14975;SDS011;7584;60.468;25.126;2023-04-28T00:20:08;3.70;;;1.87;;
14975;SDS011;7584;60.468;25.126;2023-04-28T00:22:34;2.37;;;1.30;;
14975;SDS011;7584;60.468;25.126;2023-04-28T00:24:59;5.17;;;1.40;;
14975;SDS011;7584;60.468;25.126;2023-04-28T00:27:24;5.43;;;1.80;;
14975;SDS011;7584;60.468;25.126;2023-04-28T00:29:50;4.40;;;1.30;;
14975;SDS011;7584;60.468;25.126;2023-04-28T00:32:15;4.47;;;1.30;;
14975;SDS011;7584;60.468;25.126;2023-04-28T00:34:40;2.20;;;1.47;;
14975;SDS011;7584;60.468;25.126;2023-04-28T00:37:06;4.43;;;1.47;;
14975;SDS011;7584;60.468;25.126;2023-04-28T00:39:31;2.93;;;1.30;;
14975;SDS011;7584;60.468;25.126;2023-04-28T00:41:56;3.60;;;1.37;;
14975;SDS011;7584;60.468;25.126;2023-04-28T00:44:22;4.87;;;1.50;;
14975;SDS011;7584;60.468;25.126;2023-04-28T00:46:47;2.00;;;1.33;;
14975;SDS011;7584;60.468;25.126;2023-04-28T00:49:13;8.20;;;1.83;;
14975;SDS011;7584;60.468;25.126;2023-04-28T00:51:39;3.40;;;1.80;;
14975;SDS011;7584;60.468;25.126;2023-04-28T00:54:05;4.33;;;1.40;;
14975;SDS011;7584;60.468;25.126;2023-04-28T00:56:30;4.77;;;1.60;;
14975;SDS011;7584;60.468;25.126;2023-04-28T00:58:55;3.47;;;1.60;;
14975;SDS011;7584;60.468;25.126;2023-04-28T01:01:21;4.60;;;1.87;;
14975;SDS011;7584;60.468;25.126;2023-04-28T01:03:46;5.93;;;1.63;;
14975;SDS011;7584;60.468;25.126;2023-04-28T01:06:11;4.20;;;1.37;;
14975;SDS011;7584;60.468;25.126;2023-04-28T01:08:38;4.40;;;1.40;;
14975;SDS011;7584;60.468;25.126;2023-04-28T01:11:03;3.77;;;1.50;;
14975;SDS011;7584;60.468;25.126;2023-04-28T01:13:28;2.17;;;1.13;;
14975;SDS011;7584;60.468;25.126;2023-04-28T01:15:54;6.13;;;1.37;;
14975;SDS011;7584;60.468;25.126;2023-04-28T01:18:19;3.77;;;1.47;;
14975;SDS011;7584;60.468;25.126;2023-04-28T01:20:44;2.13;;;1.47;;
14975;SDS011;7584;60.468;25.126;2023-04-28T01:23:10;3.87;;;1.50;;
14975;SDS011;7584;60.468;25.126;2023-04-28T01:25:36;3.80;;;1.30;;
14975;SDS011;7584;60.468;25.126;2023-04-28T01:28:01;3.67;;;1.47;;
14975;SDS011;7584;60.468;25.126;2023-04-28T01:30:26;4.00;;;1.47;;
14975;SDS011;7584;60.468;25.126;2023-04-28T01:32:51;9.47;;;1.70;;
14975;SDS011;7584;60.468;25.126;2023-04-28T01:35:17;5.23;;;1.67;;
14975;SDS011;7584;60.468;25.126;2023-04-28T01:37:42;4.00;;;1.27;;
14975;SDS011;7584;60.468;25.126;2023-04-28T01:40:07;3.87;;;1.23;;
14975;SDS011;7584;60.468;25.126;2023-04-28T01:42:33;7.83;;;1.60;;
14975;SDS011;7584;60.468;25.126;2023-04-28T01:44:58;2.73;;;1.17;;
14975;SDS011;7584;60.468;25.126;2023-04-28T01:47:23;1.90;;;1.30;;
14975;SDS011;7584;60.468;25.126;2023-04-28T01:49:49;4.90;;;1.67;;
14975;SDS011;7584;60.468;25.126;2023-04-28T01:52:14;3.90;;;1.60;;
14975;SDS011;7584;60.468;25.126;2023-04-28T01:54:39;5.07;;;1.50;;
14975;SDS011;7584;60.468;25.126;2023-04-28T01:57:05;5.50;;;1.60;;
14975;SDS011;7584;60.468;25.126;2023-04-28T01:59:30;3.73;;;1.67;;
14975;SDS011;7584;60.468;25.126;2023-04-28T02:01:55;4.67;;;1.40;;
14975;SDS011;7584;60.468;25.126;2023-04-28T02:04:20;7.30;;;2.57;;
14975;SDS011;7584;60.468;25.126;2023-04-28T02:06:46;6.07;;;1.80;;
14975;SDS011;7584;60.468;25.126;2023-04-28T02:09:11;2.97;;;1.80;;
14975;SDS011;7584;60.468;25.126;2023-04-28T02:11:36;6.73;;;2.23;;
14975;SDS011;7584;60.468;25.126;2023-04-28T02:14:02;7.23;;;2.30;;
14975;SDS011;7584;60.468;25.126;2023-04-28T02:16:27;3.83;;;2.20;;
14975;SDS011;7584;60.468;25.126;2023-04-28T02:18:52;8.17;;;2.80;;
14975;SDS011;7584;60.468;25.126;2023-04-28T02:21:18;10.70;;;3.40;;
14975;SDS011;7584;60.468;25.126;2023-04-28T02:23:43;6.60;;;3.00;;
14975;SDS011;7584;60.468;25.126;2023-04-28T02:26:08;11.90;;;3.87;;
14975;SDS011;7584;60.468;25.126;2023-04-28T02:28:33;7.93;;;3.37;;
14975;SDS011;7584;60.468;25.126;2023-04-28T02:31:09;13.73;;;3.90;;
14975;SDS011;7584;60.468;25.126;2023-04-28T02:33:35;11.13;;;3.43;;
14975;SDS011;7584;60.468;25.126;2023-04-28T02:36:01;17.57;;;5.53;;
14975;SDS011;7584;60.468;25.126;2023-04-28T02:38:27;11.87;;;3.70;;
14975;SDS011;7584;60.468;25.126;2023-04-28T02:41:05;14.20;;;4.17;;
14975;SDS011;7584;60.468;25.126;2023-04-28T02:43:30;18.87;;;5.00;;
14975;SDS011;7584;60.468;25.126;2023-04-28T02:45:56;10.97;;;5.23;;
14975;SDS011;7584;60.468;25.126;2023-04-28T02:48:22;18.00;;;6.33;;
14975;SDS011;7584;60.468;25.126;2023-04-28T02:50:47;27.40;;;8.03;;
14975;SDS011;7584;60.468;25.126;2023-04-28T02:53:12;29.07;;;7.20;;
14975;SDS011;7584;60.468;25.126;2023-04-28T02:55:38;15.87;;;6.87;;
14975;SDS011;7584;60.468;25.126;2023-04-28T02:58:03;34.87;;;8.10;;
14975;SDS011;7584;60.468;25.126;2023-04-28T03:00:28;27.77;;;7.23;;
14975;SDS011;7584;60.468;25.126;2023-04-28T03:02:54;30.20;;;7.23;;
14975;SDS011;7584;60.468;25.126;2023-04-28T03:05:19;24.70;;;7.70;;
14975;SDS011;7584;60.468;25.126;2023-04-28T03:07:45;17.03;;;7.43;;
14975;SDS011;7584;60.468;25.126;2023-04-28T03:10:10;29.40;;;7.47;;
14975;SDS011;7584;60.468;25.126;2023-04-28T03:12:35;25.47;;;7.37;;
14975;SDS011;7584;60.468;25.126;2023-04-28T03:15:01;26.37;;;7.40;;
14975;SDS011;7584;60.468;25.126;2023-04-28T03:17:26;41.03;;;7.80;;
14975;SDS011;7584;60.468;25.126;2023-04-28T03:19:52;41.10;;;6.87;;
14975;SDS011;7584;60.468;25.126;2023-04-28T03:22:17;38.23;;;7.27;;
14975;SDS011;7584;60.468;25.126;2023-04-28T03:24:42;26.83;;;6.83;;
14975;SDS011;7584;60.468;25.126;2023-04-28T03:27:07;37.40;;;7.50;;
14975;SDS011;7584;60.468;25.126;2023-04-28T03:29:33;24.10;;;6.03;;
14975;SDS011;7584;60.468;25.126;2023-04-28T03:31:58;27.83;;;6.33;;
14975;SDS011;7584;60.468;25.126;2023-04-28T03:34:23;24.40;;;5.53;;
14975;SDS011;7584;60.468;25.126;2023-04-28T03:36:48;55.30;;;8.30;;
14975;SDS011;7584;60.468;25.126;2023-04-28T03:39:14;36.37;;;6.70;;
14975;SDS011;7584;60.468;25.126;2023-04-28T03:41:39;46.67;;;6.50;;
14975;SDS011;7584;60.468;25.126;2023-04-28T03:44:06;48.97;;;7.33;;
14975;SDS011;7584;60.468;25.126;2023-04-28T03:46:31;32.20;;;7.13;;
14975;SDS011;7584;60.468;25.126;2023-04-28T03:48:58;14.20;;;5.63;;
14975;SDS011;7584;60.468;25.126;2023-04-28T03:51:23;87.20;;;9.27;;
14975;SDS011;7584;60.468;25.126;2023-04-28T03:53:49;56.53;;;7.90;;
14975;SDS011;7584;60.468;25.126;2023-04-28T03:56:14;107.30;;;11.70;;
14975;SDS011;7584;60.468;25.126;2023-04-28T03:58:39;38.83;;;8.00;;
14975;SDS011;7584;60.468;25.126;2023-04-28T04:01:05;56.57;;;8.10;;
14975;SDS011;7584;60.468;25.126;2023-04-28T04:03:30;50.07;;;7.93;;
14975;SDS011;7584;60.468;25.126;2023-04-28T04:05:55;85.50;;;8.73;;
14975;SDS011;7584;60.468;25.126;2023-04-28T04:08:21;57.70;;;7.43;;
14975;SDS011;7584;60.468;25.126;2023-04-28T04:10:46;134.73;;;10.07;;
14975;SDS011;7584;60.468;25.126;2023-04-28T04:13:11;147.10;;;11.37;;
14975;SDS011;7584;60.468;25.126;2023-04-28T04:15:37;92.03;;;9.70;;
14975;SDS011;7584;60.468;25.126;2023-04-28T04:18:02;73.57;;;8.93;;
14975;SDS011;7584;60.468;25.126;2023-04-28T04:20:27;69.53;;;8.20;;
14975;SDS011;7584;60.468;25.126;2023-04-28T04:22:52;77.53;;;8.90;;
14975;SDS011;7584;60.468;25.126;2023-04-28T04:25:18;55.83;;;7.17;;
14975;SDS011;7584;60.468;25.126;2023-04-28T04:27:43;58.57;;;6.97;;
14975;SDS011;7584;60.468;25.126;2023-04-28T04:30:08;36.70;;;6.07;;
14975;SDS011;7584;60.468;25.126;2023-04-28T04:32:34;19.30;;;4.63;;
14975;SDS011;7584;60.468;25.126;2023-04-28T04:34:59;14.47;;;4.83;;
14975;SDS011;7584;60.468;25.126;2023-04-28T04:37:24;13.30;;;4.67;;
14975;SDS011;7584;60.468;25.126;2023-04-28T04:39:50;18.27;;;5.23;;
14975;SDS011;7584;60.468;25.126;2023-04-28T04:42:15;9.67;;;4.73;;
14975;SDS011;7584;60.468;25.126;2023-04-28T04:44:40;25.97;;;5.87;;
14975;SDS011;7584;60.468;25.126;2023-04-28T04:47:06;13.50;;;5.63;;
14975;SDS011;7584;60.468;25.126;2023-04-28T04:49:31;16.53;;;5.67;;
14975;SDS011;7584;60.468;25.126;2023-04-28T04:51:56;13.63;;;5.30;;
14975;SDS011;7584;60.468;25.126;2023-04-28T04:54:22;9.83;;;5.07;;
14975;SDS011;7584;60.468;25.126;2023-04-28T04:56:47;13.77;;;5.07;;
14975;SDS011;7584;60.468;25.126;2023-04-28T04:59:12;13.33;;;5.73;;
14975;SDS011;7584;60.468;25.126;2023-04-28T05:01:38;10.37;;;5.50;;
14975;SDS011;7584;60.468;25.126;2023-04-28T05:04:03;9.17;;;5.37;;
14975;SDS011;7584;60.468;25.126;2023-04-28T05:06:28;12.17;;;6.10;;
14975;SDS011;7584;60.468;25.126;2023-04-28T05:08:55;8.27;;;5.00;;
14975;SDS011;7584;60.468;25.126;2023-04-28T05:11:22;7.10;;;4.93;;
14975;SDS011;7584;60.468;25.126;2023-04-28T05:13:47;9.90;;;5.33;;
14975;SDS011;7584;60.468;25.126;2023-04-28T05:16:12;13.47;;;5.13;;
14975;SDS011;7584;60.468;25.126;2023-04-28T05:18:38;11.37;;;4.70;;
14975;SDS011;7584;60.468;25.126;2023-04-28T05:21:03;8.17;;;4.67;;
14975;SDS011;7584;60.468;25.126;2023-04-28T05:23:28;6.50;;;4.30;;
14975;SDS011;7584;60.468;25.126;2023-04-28T05:25:54;8.43;;;4.23;;
14975;SDS011;7584;60.468;25.126;2023-04-28T05:28:19;9.00;;;4.53;;
14975;SDS011;7584;60.468;25.126;2023-04-28T05:30:45;8.73;;;4.07;;
14975;SDS011;7584;60.468;25.126;2023-04-28T05:33:11;7.27;;;3.87;;
14975;SDS011;7584;60.468;25.126;2023-04-28T05:35:36;5.40;;;3.60;;
14975;SDS011;7584;60.468;25.126;2023-04-28T05:38:01;7.97;;;3.70;;
14975;SDS011;7584;60.468;25.126;2023-04-28T05:40:27;7.77;;;4.20;;
14975;SDS011;7584;60.468;25.126;2023-04-28T05:42:53;4.53;;;3.30;;
14975;SDS011;7584;60.468;25.126;2023-04-28T05:45:18;12.30;;;4.03;;
14975;SDS011;7584;60.468;25.126;2023-04-28T05:47:43;6.73;;;3.73;;
14975;SDS011;7584;60.468;25.126;2023-04-28T05:50:09;5.43;;;3.37;;
14975;SDS011;7584;60.468;25.126;2023-04-28T05:52:34;8.60;;;4.17;;
14975;SDS011;7584;60.468;25.126;2023-04-28T05:54:59;9.60;;;4.43;;
14975;SDS011;7584;60.468;25.126;2023-04-28T05:57:25;7.90;;;4.30;;
14975;SDS011;7584;60.468;25.126;2023-04-28T05:59:50;7.93;;;3.80;;
14975;SDS011;7584;60.468;25.126;2023-04-28T06:02:16;10.47;;;3.57;;
14975;SDS011;7584;60.468;25.126;2023-04-28T06:04:41;6.17;;;3.60;;
14975;SDS011;7584;60.468;25.126;2023-04-28T06:07:08;7.07;;;3.53;;
14975;SDS011;7584;60.468;25.126;2023-04-28T06:09:33;7.07;;;4.03;;
14975;SDS011;7584;60.468;25.126;2023-04-28T06:11:58;10.20;;;4.20;;
14975;SDS011;7584;60.468;25.126;2023-04-28T06:14:24;13.77;;;4.33;;
14975;SDS011;7584;60.468;25.126;2023-04-28T06:16:49;8.70;;;3.37;;
14975;SDS011;7584;60.468;25.126;2023-04-28T06:19:15;6.90;;;3.07;;
14975;SDS011;7584;60.468;25.126;2023-04-28T06:21:42;8.50;;;2.90;;
14975;SDS011;7584;60.468;25.126;2023-04-28T06:24:08;5.77;;;2.70;;
14975;SDS011;7584;60.468;25.126;2023-04-28T06:26:33;6.43;;;2.67;;
14975;SDS011;7584;60.468;25.126;2023-04-28T06:28:58;6.43;;;2.20;;
14975;SDS011;7584;60.468;25.126;2023-04-28T06:31:24;6.63;;;2.43;;
14975;SDS011;7584;60.468;25.126;2023-04-28T06:33:50;4.97;;;2.03;;
14975;SDS011;7584;60.468;25.126;2023-04-28T06:36:15;4.90;;;1.83;;
14975;SDS011;7584;60.468;25.126;2023-04-28T06:38:42;4.50;;;1.50;;
14975;SDS011;7584;60.468;25.126;2023-04-28T06:41:07;4.17;;;1.73;;
14975;SDS011;7584;60.468;25.126;2023-04-28T06:43:33;2.33;;;1.33;;
14975;SDS011;7584;60.468;25.126;2023-04-28T06:45:58;3.53;;;1.40;;
14975;SDS011;7584;60.468;25.126;2023-04-28T06:48:23;4.57;;;1.60;;
14975;SDS011;7584;60.468;25.126;2023-04-28T06:50:50;5.87;;;1.60;;
14975;SDS011;7584;60.468;25.126;2023-04-28T06:53:15;6.20;;;1.37;;
14975;SDS011;7584;60.468;25.126;2023-04-28T06:55:40;3.23;;;1.60;;
14975;SDS011;7584;60.468;25.126;2023-04-28T06:58:06;4.27;;;1.50;;
14975;SDS011;7584;60.468;25.126;2023-04-28T07:00:31;2.53;;;1.40;;
14975;SDS011;7584;60.468;25.126;2023-04-28T07:02:56;2.70;;;1.40;;
14975;SDS011;7584;60.468;25.126;2023-04-28T07:05:22;8.10;;;1.43;;
14975;SDS011;7584;60.468;25.126;2023-04-28T07:07:47;5.10;;;1.60;;
14975;SDS011;7584;60.468;25.126;2023-04-28T07:10:12;7.93;;;2.00;;
14975;SDS011;7584;60.468;25.126;2023-04-28T07:12:39;4.37;;;1.70;;
14975;SDS011;7584;60.468;25.126;2023-04-28T07:15:05;3.60;;;1.30;;
14975;SDS011;7584;60.468;25.126;2023-04-28T07:17:30;3.33;;;1.67;;
14975;SDS011;7584;60.468;25.126;2023-04-28T07:19:55;5.60;;;1.27;;
14975;SDS011;7584;60.468;25.126;2023-04-28T07:22:21;3.57;;;1.57;;
14975;SDS011;7584;60.468;25.126;2023-04-28T07:24:46;2.83;;;1.20;;
14975;SDS011;7584;60.468;25.126;2023-04-28T07:27:11;5.25;;;1.50;;
14975;SDS011;7584;60.468;25.126;2023-04-28T07:29:37;7.30;;;1.25;;
14975;SDS011;7584;60.468;25.126;2023-04-28T07:32:02;4.88;;;1.48;;
14975;SDS011;7584;60.468;25.126;2023-04-28T07:34:29;3.72;;;1.40;;
14975;SDS011;7584;60.468;25.126;2023-04-28T07:36:55;4.72;;;1.35;;
14975;SDS011;7584;60.468;25.126;2023-04-28T07:39:20;3.08;;;1.10;;
14975;SDS011;7584;60.468;25.126;2023-04-28T07:41:46;3.53;;;1.10;;
14975;SDS011;7584;60.468;25.126;2023-04-28T07:44:11;5.43;;;1.10;;
14975;SDS011;7584;60.468;25.126;2023-04-28T07:46:37;2.17;;;0.95;;
14975;SDS011;7584;60.468;25.126;2023-04-28T07:49:02;4.63;;;1.23;;
14975;SDS011;7584;60.468;25.126;2023-04-28T07:51:28;3.07;;;0.97;;
14975;SDS011;7584;60.468;25.126;2023-04-28T07:53:55;4.10;;;1.20;;
14975;SDS011;7584;60.468;25.126;2023-04-28T07:56:20;5.07;;;1.43;;
14975;SDS011;7584;60.468;25.126;2023-04-28T07:58:46;4.27;;;1.30;;
14975;SDS011;7584;60.468;25.126;2023-04-28T08:01:11;1.40;;;0.70;;
14975;SDS011;7584;60.468;25.126;2023-04-28T08:03:36;2.97;;;0.80;;
14975;SDS011;7584;60.468;25.126;2023-04-28T08:06:02;5.27;;;0.97;;
14975;SDS011;7584;60.468;25.126;2023-04-28T08:08:27;6.60;;;1.55;;
14975;SDS011;7584;60.468;25.126;2023-04-28T08:10:53;4.38;;;0.93;;
14975;SDS011;7584;60.468;25.126;2023-04-28T08:13:19;3.03;;;0.90;;
14975;SDS011;7584;60.468;25.126;2023-04-28T08:15:44;2.80;;;1.40;;
14975;SDS011;7584;60.468;25.126;2023-04-28T08:18:11;3.65;;;1.10;;
14975;SDS011;7584;60.468;25.126;2023-04-28T08:20:36;3.55;;;1.10;;
14975;SDS011;7584;60.468;25.126;2023-04-28T08:23:01;2.60;;;1.08;;
14975;SDS011;7584;60.468;25.126;2023-04-28T08:25:27;2.47;;;0.95;;
14975;SDS011;7584;60.468;25.126;2023-04-28T08:27:52;3.80;;;1.10;;
14975;SDS011;7584;60.468;25.126;2023-04-28T08:30:19;2.38;;;1.00;;
14975;SDS011;7584;60.468;25.126;2023-04-28T08:32:45;3.42;;;0.98;;
14975;SDS011;7584;60.468;25.126;2023-04-28T08:35:10;2.15;;;0.85;;
14975;SDS011;7584;60.468;25.126;2023-04-28T08:37:36;1.88;;;0.90;;
14975;SDS011;7584;60.468;25.126;2023-04-28T08:40:02;2.30;;;1.38;;
14975;SDS011;7584;60.468;25.126;2023-04-28T08:42:33;3.80;;;0.90;;
14975;SDS011;7584;60.468;25.126;2023-04-28T08:44:59;4.20;;;1.00;;
14975;SDS011;7584;60.468;25.126;2023-04-28T08:47:32;2.70;;;0.95;;
14975;SDS011;7584;60.468;25.126;2023-04-28T08:50:01;2.92;;;1.00;;
14975;SDS011;7584;60.468;25.126;2023-04-28T08:52:27;3.83;;;1.27;;
14975;SDS011;7584;60.468;25.126;2023-04-28T08:54:53;4.00;;;1.30;;
14975;SDS011;7584;60.468;25.126;2023-04-28T08:57:20;3.70;;;1.23;;
14975;SDS011;7584;60.468;25.126;2023-04-28T08:59:45;3.07;;;1.20;;
14975;SDS011;7584;60.468;25.126;2023-04-28T09:02:11;2.93;;;1.37;;
14975;SDS011;7584;60.468;25.126;2023-04-28T09:04:36;3.67;;;1.40;;
14975;SDS011;7584;60.468;25.126;2023-04-28T09:07:01;3.73;;;1.53;;
14975;SDS011;7584;60.468;25.126;2023-04-28T09:09:27;2.53;;;1.43;;
14975;SDS011;7584;60.468;25.126;2023-04-28T09:11:56;4.20;;;1.43;;
14975;SDS011;7584;60.468;25.126;2023-04-28T09:14:28;3.00;;;0.90;;
14975;SDS011;7584;60.468;25.126;2023-04-28T09:16:54;4.27;;;1.17;;
14975;SDS011;7584;60.468;25.126;2023-04-28T09:19:19;4.50;;;1.30;;
14975;SDS011;7584;60.468;25.126;2023-04-28T09:21:48;6.80;;;1.50;;
14975;SDS011;7584;60.468;25.126;2023-04-28T09:24:35;7.90;;;1.47;;
14975;SDS011;7584;60.468;25.126;2023-04-28T09:27:01;6.17;;;1.57;;
14975;SDS011;7584;60.468;25.126;2023-04-28T09:29:27;2.63;;;1.10;;
14975;SDS011;7584;60.468;25.126;2023-04-28T09:31:52;4.17;;;1.13;;
14975;SDS011;7584;60.468;25.126;2023-04-28T09:34:19;2.70;;;0.90;;
14975;SDS011;7584;60.468;25.126;2023-04-28T09:36:44;4.07;;;0.93;;
14975;SDS011;7584;60.468;25.126;2023-04-28T09:39:09;2.50;;;0.87;;
14975;SDS011;7584;60.468;25.126;2023-04-28T09:44:08;2.58;;;0.82;;
14975;SDS011;7584;60.468;25.126;2023-04-28T09:46:34;4.60;;;1.00;;
14975;SDS011;7584;60.468;25.126;2023-04-28T09:48:59;3.67;;;1.20;;
14975;SDS011;7584;60.468;25.126;2023-04-28T09:51:26;5.78;;;1.33;;
14975;SDS011;7584;60.468;25.126;2023-04-28T09:53:51;1.10;;;0.67;;
14975;SDS011;7584;60.468;25.126;2023-04-28T09:56:18;2.87;;;0.90;;
14975;SDS011;7584;60.468;25.126;2023-04-28T09:58:45;3.80;;;1.23;;
14975;SDS011;7584;60.468;25.126;2023-04-28T10:01:12;1.77;;;0.90;;
14975;SDS011;7584;60.468;25.126;2023-04-28T10:03:38;3.80;;;1.00;;
14975;SDS011;7584;60.468;25.126;2023-04-28T10:06:04;3.20;;;1.50;;
14975;SDS011;7584;60.468;25.126;2023-04-28T10:08:31;3.83;;;1.17;;
14975;SDS011;7584;60.468;25.126;2023-04-28T10:10:57;4.50;;;1.33;;
14975;SDS011;7584;60.468;25.126;2023-04-28T10:13:23;3.27;;;1.43;;
14975;SDS011;7584;60.468;25.126;2023-04-28T10:15:49;6.77;;;1.20;;
14975;SDS011;7584;60.468;25.126;2023-04-28T10:18:15;3.93;;;1.20;;
14975;SDS011;7584;60.468;25.126;2023-04-28T10:20:41;8.03;;;1.50;;
14975;SDS011;7584;60.468;25.126;2023-04-28T10:25:39;6.43;;;1.13;;
14975;SDS011;7584;60.468;25.126;2023-04-28T10:28:06;4.70;;;1.30;;
14975;SDS011;7584;60.468;25.126;2023-04-28T10:30:32;5.03;;;1.40;;
14975;SDS011;7584;60.468;25.126;2023-04-28T10:40:34;2.33;;;1.00;;
14975;SDS011;7584;60.468;25.126;2023-04-28T10:43:00;6.53;;;0.80;;
14975;SDS011;7584;60.468;25.126;2023-04-28T10:48:11;2.53;;;1.00;;
14975;SDS011;7584;60.468;25.126;2023-04-28T10:50:36;2.67;;;1.05;;
14975;SDS011;7584;60.468;25.126;2023-04-28T10:53:02;2.72;;;1.00;;
14975;SDS011;7584;60.468;25.126;2023-04-28T10:55:31;2.28;;;0.80;;
14975;SDS011;7584;60.468;25.126;2023-04-28T11:00:44;3.25;;;1.10;;
14975;SDS011;7584;60.468;25.126;2023-04-28T11:08:39;3.70;;;1.10;;
14975;SDS011;7584;60.468;25.126;2023-04-28T11:13:37;3.80;;;0.93;;
14975;SDS011;7584;60.468;25.126;2023-04-28T11:16:03;3.78;;;1.10;;
14975;SDS011;7584;60.468;25.126;2023-04-28T11:18:28;1.88;;;1.00;;
14975;SDS011;7584;60.468;25.126;2023-04-28T11:20:55;2.05;;;0.90;;
14975;SDS011;7584;60.468;25.126;2023-04-28T11:23:22;5.30;;;1.08;;
14975;SDS011;7584;60.468;25.126;2023-04-28T11:25:54;4.13;;;1.10;;
14975;SDS011;7584;60.468;25.126;2023-04-28T11:28:20;2.45;;;0.90;;
14975;SDS011;7584;60.468;25.126;2023-04-28T11:30:46;3.38;;;1.00;;
14975;SDS011;7584;60.468;25.126;2023-04-28T11:33:11;4.53;;;1.20;;
14975;SDS011;7584;60.468;25.126;2023-04-28T11:35:40;2.55;;;0.90;;
14975;SDS011;7584;60.468;25.126;2023-04-28T11:38:05;3.53;;;1.33;;
14975;SDS011;7584;60.468;25.126;2023-04-28T11:40:31;3.00;;;1.13;;
14975;SDS011;7584;60.468;25.126;2023-04-28T11:42:56;1.83;;;0.73;;
14975;SDS011;7584;60.468;25.126;2023-04-28T11:45:23;1.83;;;0.90;;
14975;SDS011;7584;60.468;25.126;2023-04-28T11:47:49;2.05;;;0.90;;
14975;SDS011;7584;60.468;25.126;2023-04-28T11:50:14;2.03;;;0.80;;
14975;SDS011;7584;60.468;25.126;2023-04-28T11:52:49;3.58;;;0.80;;
14975;SDS011;7584;60.468;25.126;2023-04-28T11:55:17;2.38;;;1.00;;
14975;SDS011;7584;60.468;25.126;2023-04-28T11:57:43;3.10;;;1.08;;
14975;SDS011;7584;60.468;25.126;2023-04-28T12:00:14;7.60;;;1.10;;
14975;SDS011;7584;60.468;25.126;2023-04-28T12:02:45;6.45;;;1.30;;
14975;SDS011;7584;60.468;25.126;2023-04-28T12:05:11;3.05;;;0.98;;
14975;SDS011;7584;60.468;25.126;2023-04-28T12:07:43;1.92;;;0.90;;
14975;SDS011;7584;60.468;25.126;2023-04-28T12:10:09;4.35;;;1.00;;
14975;SDS011;7584;60.468;25.126;2023-04-28T12:12:34;2.88;;;1.23;;
14975;SDS011;7584;60.468;25.126;2023-04-28T12:15:01;6.85;;;1.08;;
14975;SDS011;7584;60.468;25.126;2023-04-28T12:17:27;3.70;;;1.05;;
14975;SDS011;7584;60.468;25.126;2023-04-28T12:19:56;5.20;;;1.20;;
14975;SDS011;7584;60.468;25.126;2023-04-28T12:22:22;3.60;;;0.93;;
14975;SDS011;7584;60.468;25.126;2023-04-28T12:25:03;1.38;;;0.75;;
14975;SDS011;7584;60.468;25.126;2023-04-28T12:27:29;2.90;;;1.02;;
14975;SDS011;7584;60.468;25.126;2023-04-28T12:29:56;3.25;;;1.30;;
14975;SDS011;7584;60.468;25.126;2023-04-28T12:32:40;2.90;;;0.93;;
14975;SDS011;7584;60.468;25.126;2023-04-28T12:35:07;3.25;;;0.60;;
14975;SDS011;7584;60.468;25.126;2023-04-28T12:37:33;3.97;;;1.10;;
14975;SDS011;7584;60.468;25.126;2023-04-28T12:39:58;3.47;;;0.98;;
14975;SDS011;7584;60.468;25.126;2023-04-28T12:42:24;5.03;;;1.02;;
14975;SDS011;7584;60.468;25.126;2023-04-28T12:44:49;2.15;;;0.80;;
14975;SDS011;7584;60.468;25.126;2023-04-28T12:47:15;2.78;;;1.02;;
14975;SDS011;7584;60.468;25.126;2023-04-28T12:49:42;3.50;;;0.95;;
14975;SDS011;7584;60.468;25.126;2023-04-28T12:52:07;7.20;;;1.00;;
14975;SDS011;7584;60.468;25.126;2023-04-28T12:54:32;1.90;;;1.00;;
14975;SDS011;7584;60.468;25.126;2023-04-28T12:56:58;4.00;;;0.77;;
14975;SDS011;7584;60.468;25.126;2023-04-28T12:59:23;5.63;;;1.00;;
14975;SDS011;7584;60.468;25.126;2023-04-28T13:01:49;4.32;;;0.93;;
14975;SDS011;7584;60.468;25.126;2023-04-28T13:04:15;3.92;;;0.82;;
14975;SDS011;7584;60.468;25.126;2023-04-28T13:06:40;2.53;;;1.00;;
14975;SDS011;7584;60.468;25.126;2023-04-28T13:09:09;3.40;;;0.75;;
14975;SDS011;7584;60.468;25.126;2023-04-28T13:11:34;2.97;;;1.10;;
14975;SDS011;7584;60.468;25.126;2023-04-28T13:13:59;1.20;;;0.65;;
14975;SDS011;7584;60.468;25.126;2023-04-28T13:16:24;5.30;;;1.10;;
14975;SDS011;7584;60.468;25.126;2023-04-28T13:18:52;3.35;;;0.90;;
14975;SDS011;7584;60.468;25.126;2023-04-28T13:21:18;3.08;;;1.02;;
14975;SDS011;7584;60.468;25.126;2023-04-28T13:23:43;4.72;;;0.98;;
14975;SDS011;7584;60.468;25.126;2023-04-28T13:26:08;2.13;;;0.90;;
14975;SDS011;7584;60.468;25.126;2023-04-28T13:28:34;3.75;;;1.00;;
14975;SDS011;7584;60.468;25.126;2023-04-28T13:30:59;3.60;;;1.10;;
14975;SDS011;7584;60.468;25.126;2023-04-28T13:33:24;1.83;;;0.70;;
14975;SDS011;7584;60.468;25.126;2023-04-28T13:35:55;1.85;;;0.90;;
14975;SDS011;7584;60.468;25.126;2023-04-28T13:38:20;2.47;;;0.88;;
14975;SDS011;7584;60.468;25.126;2023-04-28T13:40:46;1.45;;;0.80;;
14975;SDS011;7584;60.468;25.126;2023-04-28T13:43:12;4.45;;;0.80;;
14975;SDS011;7584;60.468;25.126;2023-04-28T13:45:37;1.88;;;0.75;;
14975;SDS011;7584;60.468;25.126;2023-04-28T13:48:02;2.85;;;1.08;;
14975;SDS011;7584;60.468;25.126;2023-04-28T13:50:28;2.05;;;0.88;;
14975;SDS011;7584;60.468;25.126;2023-04-28T13:52:53;2.00;;;0.82;;
14975;SDS011;7584;60.468;25.126;2023-04-28T13:55:18;2.03;;;0.90;;
14975;SDS011;7584;60.468;25.126;2023-04-28T13:57:51;5.65;;;0.80;;
14975;SDS011;7584;60.468;25.126;2023-04-28T14:00:16;2.03;;;0.50;;
14975;SDS011;7584;60.468;25.126;2023-04-28T14:02:44;2.42;;;0.52;;
14975;SDS011;7584;60.468;25.126;2023-04-28T14:05:10;1.60;;;0.60;;
14975;SDS011;7584;60.468;25.126;2023-04-28T14:07:35;1.70;;;0.75;;
14975;SDS011;7584;60.468;25.126;2023-04-28T14:10:02;2.10;;;0.70;;
14975;SDS011;7584;60.468;25.126;2023-04-28T14:12:28;1.95;;;0.68;;
14975;SDS011;7584;60.468;25.126;2023-04-28T14:14:53;3.40;;;1.00;;
14975;SDS011;7584;60.468;25.126;2023-04-28T14:17:19;5.10;;;0.90;;
14975;SDS011;7584;60.468;25.126;2023-04-28T14:19:44;2.88;;;0.70;;
14975;SDS011;7584;60.468;25.126;2023-04-28T14:22:09;1.83;;;0.82;;
14975;SDS011;7584;60.468;25.126;2023-04-28T14:24:35;3.22;;;0.85;;
14975;SDS011;7584;60.468;25.126;2023-04-28T14:27:00;1.50;;;0.63;;
14975;SDS011;7584;60.468;25.126;2023-04-28T14:29:26;2.50;;;0.80;;
14975;SDS011;7584;60.468;25.126;2023-04-28T14:31:51;3.05;;;0.80;;
14975;SDS011;7584;60.468;25.126;2023-04-28T14:34:16;2.17;;;1.00;;
14975;SDS011;7584;60.468;25.126;2023-04-28T14:36:42;3.47;;;1.10;;
14975;SDS011;7584;60.468;25.126;2023-04-28T14:39:07;3.47;;;1.07;;
14975;SDS011;7584;60.468;25.126;2023-04-28T14:41:32;6.20;;;1.23;;
14975;SDS011;7584;60.468;25.126;2023-04-28T14:43:57;4.17;;;1.53;;
14975;SDS011;7584;60.468;25.126;2023-04-28T14:46:23;7.13;;;1.30;;
14975;SDS011;7584;60.468;25.126;2023-04-28T14:48:49;5.17;;;1.20;;
14975;SDS011;7584;60.468;25.126;2023-04-28T14:51:15;5.10;;;1.27;;
14975;SDS011;7584;60.468;25.126;2023-04-28T14:53:40;3.87;;;1.20;;
14975;SDS011;7584;60.468;25.126;2023-04-28T14:56:06;3.63;;;1.20;;
14975;SDS011;7584;60.468;25.126;2023-04-28T14:58:31;7.27;;;1.60;;
14975;SDS011;7584;60.468;25.126;2023-04-28T15:00:57;3.73;;;1.40;;
14975;SDS011;7584;60.468;25.126;2023-04-28T15:03:22;3.77;;;1.30;;